createdAt,value
2023-03-05T00:01:20.277Z,1.50
2023-03-05T00:03:48.497Z,1.60
2023-03-05T00:06:17.544Z,1.60
2023-03-05T00:08:45.587Z,1.70
2023-03-05T00:11:13.895Z,1.70
2023-03-05T00:13:42.173Z,1.66
2023-03-05T00:16:12.940Z,1.66
2023-03-05T00:18:41.060Z,1.40
2023-03-05T00:21:19.776Z,1.30
2023-03-05T00:23:47.840Z,1.30
2023-03-05T00:26:15.809Z,1.30
2023-03-05T00:28:43.929Z,1.22
2023-03-05T00:31:11.995Z,1.30
2023-03-05T00:33:40.174Z,1.20
2023-03-05T00:36:08.776Z,1.20
2023-03-05T00:38:38.094Z,1.20
2023-03-05T00:41:06.141Z,1.20
2023-03-05T00:43:34.160Z,1.04
2023-03-05T00:46:02.934Z,0.86
2023-03-05T00:48:31.082Z,0.76
2023-03-05T00:50:59.098Z,0.70
2023-03-05T00:53:27.238Z,0.74
2023-03-05T00:55:55.290Z,0.70
2023-03-05T00:58:23.248Z,0.50
2023-03-05T01:00:51.260Z,0.48
2023-03-05T01:03:19.268Z,0.50
2023-03-05T01:05:47.279Z,0.50
2023-03-05T01:08:16.127Z,0.50
2023-03-05T01:10:44.301Z,0.40
2023-03-05T01:13:12.314Z,0.50
2023-03-05T01:15:40.512Z,0.54
2023-03-05T01:18:08.559Z,0.68
2023-03-05T01:20:36.544Z,0.70
2023-03-05T01:23:04.697Z,0.70
2023-03-05T01:25:32.760Z,0.70
2023-03-05T01:28:00.839Z,0.74
2023-03-05T01:30:28.905Z,0.86
2023-03-05T01:32:57.201Z,0.96
2023-03-05T01:35:25.599Z,1.10
2023-03-05T01:37:54.449Z,1.10
2023-03-05T01:40:27.580Z,1.20
2023-03-05T01:43:00.657Z,1.10
2023-03-05T01:45:31.806Z,1.00
2023-03-05T01:48:00.480Z,0.98
2023-03-05T01:50:29.713Z,0.90
2023-03-05T01:53:02.703Z,0.98
2023-03-05T01:55:31.053Z,1.02
2023-03-05T01:58:07.034Z,1.16
2023-03-05T02:00:38.179Z,1.30
2023-03-05T02:03:07.670Z,1.44
2023-03-05T02:05:36.835Z,1.50
2023-03-05T02:08:07.206Z,1.60
2023-03-05T02:10:37.403Z,1.68
2023-03-05T02:13:07.601Z,1.70
2023-03-05T02:15:35.696Z,1.80
2023-03-05T02:18:03.771Z,1.84
2023-03-05T02:21:02.534Z,1.90
2023-03-05T02:23:36.580Z,1.90
2023-03-05T02:26:09.522Z,1.90
2023-03-05T02:28:44.894Z,2.00
2023-03-05T02:31:15.032Z,2.00
2023-03-05T02:33:43.040Z,2.00
2023-03-05T02:36:12.286Z,2.00
2023-03-05T02:38:41.055Z,2.04
2023-03-05T02:41:09.511Z,2.00
2023-03-05T02:43:38.011Z,2.00
2023-03-05T02:46:06.556Z,2.00
2023-03-05T02:48:34.864Z,2.10
2023-03-05T02:51:03.624Z,2.10
2023-03-05T02:53:31.706Z,2.08
2023-03-05T02:56:00.517Z,2.10
2023-03-05T02:58:28.579Z,2.00
2023-03-05T03:00:56.813Z,2.00
2023-03-05T03:03:24.990Z,2.04
2023-03-05T03:05:53.094Z,2.04
2023-03-05T03:08:21.041Z,2.00
2023-03-05T03:10:48.975Z,2.10
2023-03-05T03:13:17.580Z,2.10
2023-03-05T03:15:45.548Z,2.10
2023-03-05T03:18:13.653Z,2.10
2023-03-05T03:20:42.128Z,2.02
2023-03-05T03:23:10.210Z,2.00
2023-03-05T03:25:38.440Z,2.00
2023-03-05T03:28:06.453Z,2.06
2023-03-05T03:30:34.403Z,2.00
2023-03-05T03:33:02.496Z,1.86
2023-03-05T03:35:30.579Z,1.70
2023-03-05T03:37:58.741Z,1.50
2023-03-05T03:40:27.102Z,1.40
2023-03-05T03:42:55.183Z,1.30
2023-03-05T03:45:23.203Z,1.20
2023-03-05T03:47:51.850Z,1.10
2023-03-05T03:50:21.659Z,1.00
2023-03-05T03:52:50.040Z,1.00
2023-03-05T03:55:18.215Z,0.94
2023-03-05T03:57:46.283Z,0.80
2023-03-05T04:00:15.010Z,0.80
2023-03-05T04:02:43.470Z,0.90
2023-03-05T04:05:11.570Z,0.90
2023-03-05T04:07:39.792Z,1.00
2023-03-05T04:10:08.580Z,1.00
2023-03-05T04:12:36.651Z,1.10
2023-03-05T04:15:07.997Z,1.20
2023-03-05T04:17:36.109Z,1.20
2023-03-05T04:20:06.203Z,1.30
2023-03-05T04:22:34.272Z,1.30
2023-03-05T04:25:06.579Z,1.30
2023-03-05T04:27:34.814Z,1.30
2023-03-05T04:30:02.765Z,1.30
2023-03-05T04:32:30.984Z,1.30
2023-03-05T04:34:59.424Z,1.30
2023-03-05T04:37:27.655Z,1.30
2023-03-05T04:39:55.613Z,1.24
2023-03-05T04:42:23.728Z,1.20
2023-03-05T04:44:51.810Z,1.24
2023-03-05T04:47:19.845Z,1.30
2023-03-05T04:49:47.950Z,1.30
2023-03-05T04:52:16.026Z,1.30
2023-03-05T04:54:44.812Z,1.30
2023-03-05T04:57:12.829Z,1.24
2023-03-05T04:59:40.957Z,1.10
2023-03-05T05:02:09.014Z,1.02
2023-03-05T05:04:37.199Z,0.90
2023-03-05T05:07:07.689Z,0.90
2023-03-05T05:09:35.712Z,0.80
2023-03-05T05:12:03.816Z,0.84
2023-03-05T05:14:31.917Z,0.88
2023-03-05T05:17:00.678Z,0.90
2023-03-05T05:19:28.652Z,0.88
2023-03-05T05:21:56.748Z,0.90
2023-03-05T05:24:24.636Z,0.90
2023-03-05T05:26:54.957Z,0.90
2023-03-05T05:29:23.135Z,0.92
2023-03-05T05:31:51.285Z,1.00
2023-03-05T05:34:19.341Z,1.02
2023-03-05T05:37:16.526Z,1.10
2023-03-05T05:39:50.192Z,1.08
2023-03-05T05:42:18.932Z,1.10
2023-03-05T05:44:47.776Z,1.20
2023-03-05T05:47:16.588Z,1.20
2023-03-05T05:49:44.751Z,1.30
2023-03-05T05:52:13.421Z,1.40
2023-03-05T05:54:41.510Z,1.40
2023-03-05T05:57:09.496Z,1.50
2023-03-05T05:59:38.515Z,1.60
2023-03-05T06:02:08.002Z,1.60
2023-03-05T06:04:36.275Z,1.70
2023-03-05T06:07:04.366Z,1.80
2023-03-05T06:09:32.548Z,1.90
2023-03-05T06:12:00.591Z,1.90
2023-03-05T06:14:28.696Z,1.90
2023-03-05T06:16:59.109Z,1.90
2023-03-05T06:19:27.157Z,1.90
2023-03-05T06:21:55.094Z,2.00
2023-03-05T06:24:23.094Z,2.00
2023-03-05T06:26:51.067Z,2.08
2023-03-05T06:29:19.238Z,2.06
2023-03-05T06:31:47.318Z,2.00
2023-03-05T06:34:15.328Z,2.08
2023-03-05T06:36:44.475Z,2.10
2023-03-05T06:39:12.547Z,2.10
2023-03-05T06:41:40.820Z,2.20
2023-03-05T06:44:09.716Z,2.20
2023-03-05T06:46:39.389Z,2.30
2023-03-05T06:49:09.800Z,2.40
2023-03-05T06:51:39.501Z,2.50
2023-03-05T06:54:09.576Z,2.60
2023-03-05T06:56:38.493Z,2.60
2023-03-05T06:59:06.644Z,2.70
2023-03-05T07:01:35.053Z,2.76
2023-03-05T07:04:03.409Z,2.80
2023-03-05T07:06:36.018Z,2.90
2023-03-05T07:09:04.886Z,3.00
2023-03-05T07:11:33.004Z,3.00
2023-03-05T07:14:01.312Z,3.06
2023-03-05T07:16:31.218Z,3.18
2023-03-05T07:19:00.430Z,3.20
2023-03-05T07:21:31.803Z,3.30
2023-03-05T07:24:01.083Z,3.30
2023-03-05T07:26:29.189Z,3.30
2023-03-05T07:28:57.318Z,3.30
2023-03-05T07:31:31.086Z,3.30
2023-03-05T07:34:00.222Z,3.32
2023-03-05T07:36:28.394Z,3.36
2023-03-05T07:38:56.559Z,3.30
2023-03-05T07:41:24.789Z,3.30
2023-03-05T07:43:53.559Z,3.30
2023-03-05T07:46:24.851Z,3.40
2023-03-05T07:48:54.752Z,3.40
2023-03-05T07:51:23.546Z,3.50
2023-03-05T07:53:57.541Z,3.60
2023-03-05T07:56:26.953Z,3.70
2023-03-05T07:58:55.377Z,3.80
2023-03-05T08:01:23.630Z,3.90
2023-03-05T08:03:51.862Z,4.02
2023-03-05T08:06:20.267Z,4.04
2023-03-05T08:08:48.484Z,4.10
2023-03-05T08:11:18.931Z,4.10
2023-03-05T08:13:47.619Z,4.20
2023-03-05T08:16:20.081Z,4.30
2023-03-05T08:18:48.620Z,4.40
2023-03-05T08:21:19.314Z,4.50
2023-03-05T08:23:47.731Z,4.58
2023-03-05T08:26:17.754Z,4.68
2023-03-05T08:28:54.724Z,4.76
2023-03-05T08:31:53.730Z,4.80
2023-03-05T08:34:57.944Z,4.90
2023-03-05T08:37:40.454Z,5.10
2023-03-05T08:40:20.311Z,5.02
2023-03-05T08:42:48.619Z,5.10
2023-03-05T08:45:24.707Z,5.30
2023-03-05T08:47:57.331Z,5.30
2023-03-05T08:50:28.681Z,5.40
2023-03-05T08:53:05.394Z,5.50
2023-03-05T08:56:25.498Z,5.50
2023-03-05T08:58:53.961Z,5.60
2023-03-05T09:01:33.603Z,5.66
2023-03-05T09:04:42.985Z,5.88
2023-03-05T09:07:51.856Z,5.96
2023-03-05T09:10:33.110Z,6.00
2023-03-05T09:13:28.673Z,6.10
2023-03-05T09:16:16.283Z,6.20
2023-03-05T09:18:52.757Z,6.36
2023-03-05T09:21:43.323Z,6.50
2023-03-05T09:24:26.059Z,6.62
2023-03-05T09:27:11.359Z,6.98
2023-03-05T09:29:48.186Z,7.10
2023-03-05T09:32:24.803Z,7.28
2023-03-05T09:35:06.030Z,7.40
2023-03-05T09:37:43.181Z,7.40
2023-03-05T09:40:18.011Z,7.34
2023-03-05T09:43:22.649Z,7.38
2023-03-05T09:46:29.979Z,7.18
2023-03-05T09:49:05.162Z,7.06
2023-03-05T09:51:36.501Z,7.20
2023-03-05T09:54:14.397Z,7.18
2023-03-05T09:57:22.091Z,7.14
2023-03-05T10:01:03.257Z,7.16
2023-03-05T10:04:43.989Z,7.00
2023-03-05T10:07:14.187Z,7.02
2023-03-05T10:10:36.309Z,7.20
2023-03-05T10:13:49.898Z,7.20
2023-03-05T10:16:36.759Z,7.10
2023-03-05T10:19:11.095Z,7.02
2023-03-05T10:21:50.740Z,7.10
2023-03-05T10:24:22.385Z,7.28
2023-03-05T10:27:33.765Z,7.20
2023-03-05T10:30:24.961Z,7.22
2023-03-05T10:33:05.238Z,7.40
2023-03-05T10:35:54.750Z,7.60
2023-03-05T10:38:40.930Z,7.60
2023-03-05T10:41:48.386Z,7.60
2023-03-05T10:44:20.073Z,7.70
2023-03-05T10:46:48.284Z,7.70
2023-03-05T10:49:21.377Z,7.60
2023-03-05T10:52:19.058Z,7.70
2023-03-05T10:54:47.220Z,7.62
2023-03-05T10:57:23.339Z,7.60
2023-03-05T11:00:20.526Z,7.42
2023-03-05T11:03:04.624Z,7.50
2023-03-05T11:05:39.192Z,7.58
2023-03-05T11:08:19.603Z,7.60
2023-03-05T11:10:47.659Z,7.70
2023-03-05T11:13:26.388Z,7.60
2023-03-05T11:16:15.125Z,7.60
2023-03-05T11:18:44.478Z,7.60
2023-03-05T11:21:20.869Z,7.70
2023-03-05T11:24:06.052Z,7.70
2023-03-05T11:26:34.406Z,7.80
2023-03-05T11:29:03.353Z,7.80
2023-03-05T11:31:32.577Z,7.86
2023-03-05T11:34:03.372Z,7.80
2023-03-05T11:36:42.121Z,7.78
2023-03-05T11:39:11.740Z,7.80
2023-03-05T11:41:51.745Z,7.90
2023-03-05T11:44:30.659Z,8.10
2023-03-05T11:47:03.254Z,8.40
2023-03-05T11:49:34.123Z,8.80
2023-03-05T11:52:23.250Z,8.88
2023-03-05T11:54:55.003Z,8.70
2023-03-05T11:57:29.004Z,8.60
2023-03-05T11:59:59.371Z,8.56
2023-03-05T12:02:27.565Z,8.52
2023-03-05T12:05:06.587Z,8.50
2023-03-05T12:07:37.190Z,8.34
2023-03-05T12:10:05.686Z,8.40
2023-03-05T12:12:37.652Z,8.40
2023-03-05T12:15:17.934Z,8.42
2023-03-05T12:17:54.477Z,8.40
2023-03-05T12:20:51.777Z,8.40
2023-03-05T12:23:21.252Z,8.40
2023-03-05T12:26:00.152Z,8.58
2023-03-05T12:28:34.092Z,8.70
2023-03-05T12:31:06.050Z,8.80
2023-03-05T12:33:43.663Z,8.70
2023-03-05T12:36:18.091Z,8.62
2023-03-05T12:38:51.989Z,8.60
2023-03-05T12:41:23.098Z,8.50
2023-03-05T12:44:06.170Z,8.60
2023-03-05T12:46:40.702Z,8.60
2023-03-05T12:49:38.214Z,8.60
2023-03-05T12:52:19.885Z,8.64
2023-03-05T12:55:15.400Z,8.58
2023-03-05T12:57:45.805Z,8.60
2023-03-05T13:00:26.346Z,8.50
2023-03-05T13:02:58.910Z,8.30
2023-03-05T13:05:29.651Z,8.30
2023-03-05T13:08:23.339Z,8.30
2023-03-05T13:11:03.745Z,8.30
2023-03-05T13:13:35.385Z,8.22
2023-03-05T13:16:03.938Z,8.20
2023-03-05T13:18:32.909Z,8.20
2023-03-05T13:21:14.564Z,8.14
2023-03-05T13:23:50.369Z,8.10
2023-03-05T13:26:19.178Z,8.10
2023-03-05T13:29:05.852Z,8.20
2023-03-05T13:31:35.547Z,8.10
2023-03-05T13:34:22.192Z,8.08
2023-03-05T13:36:56.999Z,8.00
2023-03-05T13:39:31.871Z,7.90
2023-03-05T13:42:23.459Z,7.90
2023-03-05T13:45:01.089Z,7.86
2023-03-05T13:47:35.033Z,7.70
2023-03-05T13:50:07.495Z,7.70
2023-03-05T13:52:44.862Z,7.60
2023-03-05T13:55:14.637Z,7.52
2023-03-05T13:57:51.102Z,7.40
2023-03-05T14:00:34.294Z,7.40
2023-03-05T14:03:21.079Z,7.20
2023-03-05T14:05:50.104Z,7.14
2023-03-05T14:08:25.522Z,7.10
2023-03-05T14:10:54.106Z,7.02
2023-03-05T14:13:27.256Z,6.98
2023-03-05T14:16:13.950Z,6.86
2023-03-05T14:19:01.669Z,6.70
2023-03-05T14:21:47.540Z,6.74
2023-03-05T14:24:21.956Z,6.70
2023-03-05T14:26:53.835Z,6.70
2023-03-05T14:29:27.990Z,6.70
2023-03-05T14:32:08.668Z,6.60
2023-03-05T14:34:41.093Z,6.56
2023-03-05T14:37:20.108Z,6.50
2023-03-05T14:39:53.266Z,6.50
2023-03-05T14:42:31.981Z,6.40
2023-03-05T14:45:02.642Z,6.38
2023-03-05T14:47:30.638Z,6.40
2023-03-05T14:49:58.790Z,6.38
2023-03-05T14:52:29.705Z,6.40
2023-03-05T14:54:57.712Z,6.30
2023-03-05T14:57:30.336Z,6.30
2023-03-05T14:59:58.512Z,6.20
2023-03-05T15:02:27.047Z,6.20
2023-03-05T15:04:55.412Z,6.14
2023-03-05T15:07:32.341Z,6.10
2023-03-05T15:10:00.544Z,6.10
2023-03-05T15:12:28.578Z,6.10
2023-03-05T15:14:56.784Z,6.04
2023-03-05T15:17:44.624Z,6.10
2023-03-05T15:20:16.112Z,6.00
2023-03-05T15:22:44.493Z,5.90
2023-03-05T15:25:12.975Z,5.90
2023-03-05T15:27:45.014Z,5.90
2023-03-05T15:30:33.372Z,5.82
2023-03-05T15:33:03.478Z,5.70
2023-03-05T15:35:31.548Z,5.70
2023-03-05T15:37:59.663Z,5.80
2023-03-05T15:40:30.468Z,5.70
2023-03-05T15:42:59.117Z,5.80
2023-03-05T15:45:33.048Z,5.72
2023-03-05T15:48:01.258Z,5.70
2023-03-05T15:50:33.376Z,5.60
2023-03-05T15:53:04.266Z,5.60
2023-03-05T15:55:47.032Z,5.60
2023-03-05T15:58:24.243Z,5.60
2023-03-05T16:00:52.452Z,5.60
2023-03-05T16:03:20.679Z,5.50
2023-03-05T16:05:48.746Z,5.50
2023-03-05T16:08:16.731Z,5.50
2023-03-05T16:10:45.090Z,5.54
2023-03-05T16:13:14.393Z,5.50
2023-03-05T16:15:42.431Z,5.50
2023-03-05T16:18:12.428Z,5.40
2023-03-05T16:20:40.506Z,5.40
2023-03-05T16:23:08.669Z,5.40
2023-03-05T16:25:44.911Z,5.50
2023-03-05T16:28:19.114Z,5.46
2023-03-05T16:30:54.751Z,5.40
2023-03-05T16:33:22.852Z,5.40
2023-03-05T16:36:11.434Z,5.50
2023-03-05T16:38:39.561Z,5.38
2023-03-05T16:41:14.660Z,5.40
2023-03-05T16:43:48.086Z,5.40
2023-03-05T16:46:18.694Z,5.30
2023-03-05T16:49:06.192Z,5.40
2023-03-05T16:51:34.819Z,5.36
2023-03-05T16:54:03.252Z,5.30
2023-03-05T16:56:31.449Z,5.30
2023-03-05T16:58:59.616Z,5.20
2023-03-05T17:01:30.387Z,5.20
2023-03-05T17:04:02.226Z,5.30
2023-03-05T17:07:08.218Z,5.20
2023-03-05T17:09:39.585Z,5.10
2023-03-05T17:12:07.776Z,5.20
2023-03-05T17:15:20.143Z,5.08
2023-03-05T17:17:57.165Z,5.00
2023-03-05T17:20:25.606Z,4.94
2023-03-05T17:22:53.810Z,4.98
2023-03-05T17:25:21.916Z,5.00
2023-03-05T17:27:50.013Z,5.02
2023-03-05T17:30:18.116Z,5.00
2023-03-05T17:32:52.444Z,5.06
2023-03-05T17:35:21.611Z,5.00
2023-03-05T17:37:50.211Z,5.10
2023-03-05T17:40:18.423Z,5.00
2023-03-05T17:42:46.528Z,5.08
2023-03-05T17:45:14.807Z,5.00
2023-03-05T17:47:42.990Z,4.90
2023-03-05T17:50:12.294Z,5.00
2023-03-05T17:52:41.495Z,5.00
2023-03-05T17:55:10.775Z,5.00
2023-03-05T17:57:41.498Z,5.00
2023-03-05T18:00:15.100Z,5.06
2023-03-05T18:02:43.760Z,4.90
2023-03-05T18:05:12.032Z,4.90
2023-03-05T18:07:40.169Z,5.00
2023-03-05T18:10:28.747Z,5.00
2023-03-05T18:12:57.198Z,4.98
2023-03-05T18:15:26.022Z,5.00
2023-03-05T18:17:57.344Z,5.00
2023-03-05T18:20:31.214Z,4.90
2023-03-05T18:23:00.007Z,4.72
2023-03-05T18:25:31.317Z,4.76
2023-03-05T18:28:00.514Z,4.82
2023-03-05T18:30:28.785Z,4.74
2023-03-05T18:32:57.105Z,4.82
2023-03-05T18:35:25.378Z,4.92
2023-03-05T18:37:53.817Z,5.00
2023-03-05T18:40:26.298Z,4.84
2023-03-05T18:42:54.543Z,4.90
2023-03-05T18:45:25.008Z,4.88
2023-03-05T18:47:54.448Z,4.80
2023-03-05T18:50:24.843Z,4.82
2023-03-05T18:52:53.802Z,4.80
2023-03-05T18:55:24.230Z,4.80
2023-03-05T18:57:52.658Z,4.72
2023-03-05T19:00:22.862Z,4.80
2023-03-05T19:02:53.487Z,4.76
2023-03-05T19:05:21.610Z,4.80
2023-03-05T19:07:49.835Z,4.78
2023-03-05T19:10:18.098Z,4.90
2023-03-05T19:13:36.296Z,4.80
2023-03-05T19:16:09.472Z,4.80
2023-03-05T19:19:37.497Z,4.82
2023-03-05T19:22:09.759Z,4.80
2023-03-05T19:24:40.623Z,4.70
2023-03-05T19:27:13.291Z,4.70
2023-03-05T19:29:41.928Z,4.70
2023-03-05T19:32:12.435Z,4.88
2023-03-05T19:34:41.670Z,4.90
2023-03-05T19:37:09.696Z,4.80
2023-03-05T19:39:37.965Z,4.70
2023-03-05T19:42:06.601Z,4.70
2023-03-05T19:44:45.482Z,4.66
2023-03-05T19:47:20.149Z,4.64
2023-03-05T19:49:48.322Z,4.62
2023-03-05T19:52:16.632Z,4.66
2023-03-05T19:54:45.024Z,4.60
2023-03-05T19:57:13.111Z,4.70
2023-03-05T19:59:41.273Z,4.60
2023-03-05T20:02:11.744Z,4.60
2023-03-05T20:04:39.878Z,4.60
2023-03-05T20:07:07.961Z,4.70
2023-03-05T20:09:36.013Z,4.60
2023-03-05T20:12:05.650Z,4.64
2023-03-05T20:14:35.456Z,4.70
2023-03-05T20:17:03.714Z,4.60
2023-03-05T20:19:31.910Z,4.60
2023-03-05T20:22:00.141Z,4.60
2023-03-05T20:24:28.296Z,4.60
2023-03-05T20:26:56.455Z,4.68
2023-03-05T20:29:24.548Z,4.50
2023-03-05T20:31:52.975Z,4.60
2023-03-05T20:34:21.233Z,4.60
2023-03-05T20:36:51.333Z,4.60
2023-03-05T20:39:19.535Z,4.60
2023-03-05T20:41:48.572Z,4.64
2023-03-05T20:44:16.854Z,4.60
2023-03-05T20:47:37.725Z,4.60
2023-03-05T20:50:06.733Z,4.64
2023-03-05T20:52:35.000Z,4.60
2023-03-05T20:55:12.461Z,4.68
2023-03-05T20:57:42.088Z,4.60
2023-03-05T21:00:10.729Z,4.50
2023-03-05T21:02:39.962Z,4.50
2023-03-05T21:05:08.232Z,4.46
2023-03-05T21:07:36.324Z,4.46
2023-03-05T21:10:04.977Z,4.50
2023-03-05T21:12:33.310Z,4.48
2023-03-05T21:15:01.266Z,4.50
2023-03-05T21:17:29.301Z,4.50
2023-03-05T21:19:57.472Z,4.50
2023-03-05T21:22:25.563Z,4.52
2023-03-05T21:25:21.904Z,4.50
2023-03-05T21:28:10.962Z,4.50
2023-03-05T21:30:40.875Z,4.50
2023-03-05T21:33:11.248Z,4.40
2023-03-05T21:35:39.524Z,4.50
2023-03-05T21:38:12.263Z,4.50
2023-03-05T21:40:43.755Z,4.48
2023-03-05T21:43:12.309Z,4.40
2023-03-05T21:45:40.412Z,4.40
2023-03-05T21:48:09.085Z,4.40
2023-03-05T21:50:41.121Z,4.40
2023-03-05T21:53:09.342Z,4.34
2023-03-05T21:56:08.721Z,4.40
2023-03-05T21:58:39.791Z,4.50
2023-03-05T22:01:07.791Z,4.48
2023-03-05T22:03:35.806Z,4.46
2023-03-05T22:06:04.297Z,4.50
2023-03-05T22:08:32.334Z,4.54
2023-03-05T22:11:00.632Z,4.60
2023-03-05T22:13:28.672Z,4.50
2023-03-05T22:15:59.496Z,4.30
2023-03-05T22:18:28.967Z,4.30
2023-03-05T22:20:57.609Z,4.20
2023-03-05T22:23:29.214Z,4.10
2023-03-05T22:26:04.361Z,4.00
2023-03-05T22:28:32.744Z,4.00
2023-03-05T22:31:00.833Z,4.00
2023-03-05T22:33:28.924Z,3.90
2023-03-05T22:35:57.093Z,3.90
2023-03-05T22:38:25.446Z,3.90
2023-03-05T22:40:53.433Z,3.90
2023-03-05T22:43:21.591Z,3.90
2023-03-05T22:45:49.726Z,3.90
2023-03-05T22:48:17.810Z,3.90
2023-03-05T22:50:45.925Z,3.90
2023-03-05T22:53:14.020Z,3.90
2023-03-05T22:55:42.197Z,3.90
2023-03-05T22:58:10.396Z,4.00
2023-03-05T23:00:38.444Z,4.10
2023-03-05T23:03:07.244Z,4.10
2023-03-05T23:05:35.517Z,4.12
2023-03-05T23:08:03.614Z,4.10
2023-03-05T23:10:34.300Z,4.10
2023-03-05T23:13:02.449Z,4.20
2023-03-05T23:15:31.518Z,4.20
2023-03-05T23:17:59.743Z,4.20
2023-03-05T23:20:29.777Z,4.20
2023-03-05T23:22:57.885Z,4.20
2023-03-05T23:25:28.308Z,4.30
2023-03-05T23:27:58.075Z,4.30
2023-03-05T23:30:27.470Z,4.24
2023-03-05T23:33:14.179Z,4.30
2023-03-05T23:35:43.898Z,4.24
2023-03-05T23:38:13.019Z,4.22
2023-03-05T23:40:45.669Z,4.20
2023-03-05T23:43:13.977Z,4.30
2023-03-05T23:45:43.036Z,4.28
2023-03-05T23:48:11.313Z,4.28
2023-03-05T23:50:40.574Z,4.26
2023-03-05T23:53:08.797Z,4.30
2023-03-05T23:55:41.490Z,4.30
2023-03-05T23:58:09.835Z,4.20
